Terminal Aerodrome Forecast
Issued by NWS Atlanta, GA

Home | Current Version | Previous Version | Text Only | Print | Product List | Glossary On
Versions: 1 2 3 4 5 6 7 8 9 10 11 12 13 14 15 16 17 18 19 20
000
FTUS42 KFFC 072340
TAFCSG
TAF
KCSG 072340Z 0800/0824 29008KT P6SM BKN025
     FM080300 33006KT P6SM BKN015
     FM081400 31007KT P6SM BKN025
     FM081700 30010G18KT P6SM SCT045 BKN100=

USA.gov is the U.S. government's official web portal to all federal, state and local government web resources and services.